X  Cerrar Datos meteorológicos de aviación METAR     KMLB Melbourne International Airport
Temperatura
81°F Temperatura
75°F Punto de rocío
84% Humedad



Viento
9 MPH
14 KM/H
4 M/S
8 NUDO



140°
SE
Condiciones actuales

Claro Claro
Presión 1018.62 (hPa) - 30.08 (inHg)
Visibilidad 9.9 (milla) - 16 (km)
Aeropuerto
Código de aeropuerto KMLB

localidad: Melbourne International Airport
Distancia: 4 (mi)

Metar:
KMLB 190153Z 14008KT 10SM CLR 27/24 A3008 RMK AO2 SLP184 T02720239

Hora: 18-06-2021 9:53 pm EDT